sensor_id;sensor_type;location;lat;lon;timestamp;P1;durP1;ratioP1;P2;durP2;ratioP2
33010;SDS011;19370;48.562;9.196;2024-01-16T00:01:08;9.60;;;3.63;;
33010;SDS011;19370;48.562;9.196;2024-01-16T00:03:33;8.80;;;3.22;;
33010;SDS011;19370;48.562;9.196;2024-01-16T00:08:33;8.60;;;3.42;;
33010;SDS011;19370;48.562;9.196;2024-01-16T00:10:59;9.63;;;3.87;;
33010;SDS011;19370;48.562;9.196;2024-01-16T00:13:40;10.02;;;3.40;;
33010;SDS011;19370;48.562;9.196;2024-01-16T00:16:09;9.35;;;2.95;;
33010;SDS011;19370;48.562;9.196;2024-01-16T00:18:40;9.57;;;3.20;;
33010;SDS011;19370;48.562;9.196;2024-01-16T00:21:05;10.07;;;3.63;;
33010;SDS011;19370;48.562;9.196;2024-01-16T00:23:31;9.48;;;3.33;;
33010;SDS011;19370;48.562;9.196;2024-01-16T00:25:58;11.53;;;3.90;;
33010;SDS011;19370;48.562;9.196;2024-01-16T00:28:27;9.00;;;3.30;;
33010;SDS011;19370;48.562;9.196;2024-01-16T00:31:06;9.18;;;3.35;;
33010;SDS011;19370;48.562;9.196;2024-01-16T00:33:34;9.02;;;3.10;;
33010;SDS011;19370;48.562;9.196;2024-01-16T00:36:00;9.48;;;3.30;;
33010;SDS011;19370;48.562;9.196;2024-01-16T00:38:25;9.80;;;3.40;;
33010;SDS011;19370;48.562;9.196;2024-01-16T00:40:54;9.15;;;3.40;;
33010;SDS011;19370;48.562;9.196;2024-01-16T00:43:20;9.47;;;3.57;;
33010;SDS011;19370;48.562;9.196;2024-01-16T00:45:49;9.13;;;3.42;;
33010;SDS011;19370;48.562;9.196;2024-01-16T00:48:15;8.93;;;3.30;;
33010;SDS011;19370;48.562;9.196;2024-01-16T00:50:48;9.75;;;3.22;;
33010;SDS011;19370;48.562;9.196;2024-01-16T00:53:15;9.35;;;2.95;;
33010;SDS011;19370;48.562;9.196;2024-01-16T00:55:44;9.73;;;3.63;;
33010;SDS011;19370;48.562;9.196;2024-01-16T00:58:13;9.07;;;3.10;;
33010;SDS011;19370;48.562;9.196;2024-01-16T01:00:39;9.43;;;3.20;;
33010;SDS011;19370;48.562;9.196;2024-01-16T01:03:09;8.70;;;3.30;;
33010;SDS011;19370;48.562;9.196;2024-01-16T01:05:37;9.83;;;3.40;;
33010;SDS011;19370;48.562;9.196;2024-01-16T01:08:03;7.88;;;2.92;;
33010;SDS011;19370;48.562;9.196;2024-01-16T01:10:29;10.07;;;3.45;;
33010;SDS011;19370;48.562;9.196;2024-01-16T01:12:55;9.33;;;3.40;;
33010;SDS011;19370;48.562;9.196;2024-01-16T01:15:20;8.70;;;3.20;;
33010;SDS011;19370;48.562;9.196;2024-01-16T01:17:48;8.07;;;2.88;;
33010;SDS011;19370;48.562;9.196;2024-01-16T01:20:14;8.85;;;3.20;;
33010;SDS011;19370;48.562;9.196;2024-01-16T01:22:41;9.23;;;3.33;;
33010;SDS011;19370;48.562;9.196;2024-01-16T01:25:12;8.43;;;2.85;;
33010;SDS011;19370;48.562;9.196;2024-01-16T01:27:51;8.77;;;3.35;;
33010;SDS011;19370;48.562;9.196;2024-01-16T01:30:24;8.18;;;2.95;;
33010;SDS011;19370;48.562;9.196;2024-01-16T01:32:50;10.05;;;3.88;;
33010;SDS011;19370;48.562;9.196;2024-01-16T01:35:20;9.23;;;3.07;;
33010;SDS011;19370;48.562;9.196;2024-01-16T01:37:45;8.63;;;3.00;;
33010;SDS011;19370;48.562;9.196;2024-01-16T01:40:20;8.43;;;3.17;;
33010;SDS011;19370;48.562;9.196;2024-01-16T01:48:34;9.68;;;3.30;;
33010;SDS011;19370;48.562;9.196;2024-01-16T01:51:05;10.57;;;3.30;;
33010;SDS011;19370;48.562;9.196;2024-01-16T01:53:31;8.75;;;3.05;;
33010;SDS011;19370;48.562;9.196;2024-01-16T01:55:59;9.07;;;2.90;;
33010;SDS011;19370;48.562;9.196;2024-01-16T01:58:33;8.98;;;3.17;;
33010;SDS011;19370;48.562;9.196;2024-01-16T02:01:00;8.48;;;3.40;;
33010;SDS011;19370;48.562;9.196;2024-01-16T02:03:28;7.83;;;3.13;;
33010;SDS011;19370;48.562;9.196;2024-01-16T02:05:55;8.48;;;3.10;;
33010;SDS011;19370;48.562;9.196;2024-01-16T02:10:50;9.70;;;3.17;;
33010;SDS011;19370;48.562;9.196;2024-01-16T02:13:16;8.30;;;3.23;;
33010;SDS011;19370;48.562;9.196;2024-01-16T02:15:58;9.15;;;3.22;;
33010;SDS011;19370;48.562;9.196;2024-01-16T02:18:23;8.68;;;3.28;;
33010;SDS011;19370;48.562;9.196;2024-01-16T02:20:49;10.10;;;3.03;;
33010;SDS011;19370;48.562;9.196;2024-01-16T02:23:15;11.20;;;3.40;;
33010;SDS011;19370;48.562;9.196;2024-01-16T02:25:51;8.95;;;3.30;;
33010;SDS011;19370;48.562;9.196;2024-01-16T02:28:17;8.33;;;2.80;;
33010;SDS011;19370;48.562;9.196;2024-01-16T02:30:42;9.50;;;3.35;;
33010;SDS011;19370;48.562;9.196;2024-01-16T02:33:08;8.13;;;2.90;;
33010;SDS011;19370;48.562;9.196;2024-01-16T02:35:34;7.47;;;2.80;;
33010;SDS011;19370;48.562;9.196;2024-01-16T02:37:59;8.63;;;3.20;;
33010;SDS011;19370;48.562;9.196;2024-01-16T10:19:27;13.68;;;6.13;;
33010;SDS011;19370;48.562;9.196;2024-01-16T10:29:58;8.15;;;3.50;;
33010;SDS011;19370;48.562;9.196;2024-01-16T11:20:36;9.30;;;3.90;;
33010;SDS011;19370;48.562;9.196;2024-01-16T13:45:52;6.78;;;2.80;;
33010;SDS011;19370;48.562;9.196;2024-01-16T13:52:11;7.07;;;2.60;;
33010;SDS011;19370;48.562;9.196;2024-01-16T13:54:39;8.20;;;2.85;;
33010;SDS011;19370;48.562;9.196;2024-01-16T13:57:06;6.68;;;2.42;;
33010;SDS011;19370;48.562;9.196;2024-01-16T13:59:33;6.95;;;2.70;;
33010;SDS011;19370;48.562;9.196;2024-01-16T14:01:59;7.03;;;2.53;;
33010;SDS011;19370;48.562;9.196;2024-01-16T14:04:26;8.77;;;2.80;;
33010;SDS011;19370;48.562;9.196;2024-01-16T14:06:53;6.85;;;2.80;;
33010;SDS011;19370;48.562;9.196;2024-01-16T16:25:40;12.88;;;5.80;;
33010;SDS011;19370;48.562;9.196;2024-01-16T16:28:12;12.60;;;6.25;;
33010;SDS011;19370;48.562;9.196;2024-01-16T16:30:37;13.60;;;6.10;;
33010;SDS011;19370;48.562;9.196;2024-01-16T16:33:04;12.43;;;5.43;;
33010;SDS011;19370;48.562;9.196;2024-01-16T16:35:32;15.05;;;5.95;;
33010;SDS011;19370;48.562;9.196;2024-01-16T16:40:28;16.33;;;7.05;;
33010;SDS011;19370;48.562;9.196;2024-01-16T16:42:54;17.15;;;8.10;;
33010;SDS011;19370;48.562;9.196;2024-01-16T16:45:21;19.83;;;9.40;;
33010;SDS011;19370;48.562;9.196;2024-01-16T16:47:52;20.02;;;9.27;;
33010;SDS011;19370;48.562;9.196;2024-01-16T16:50:18;19.10;;;8.88;;
33010;SDS011;19370;48.562;9.196;2024-01-16T16:52:45;19.85;;;9.27;;
33010;SDS011;19370;48.562;9.196;2024-01-16T16:55:14;20.38;;;8.75;;
33010;SDS011;19370;48.562;9.196;2024-01-16T16:57:42;18.50;;;8.83;;
33010;SDS011;19370;48.562;9.196;2024-01-16T17:00:07;17.08;;;8.20;;
33010;SDS011;19370;48.562;9.196;2024-01-16T17:02:33;20.38;;;8.75;;
33010;SDS011;19370;48.562;9.196;2024-01-16T17:07:30;19.52;;;9.05;;
33010;SDS011;19370;48.562;9.196;2024-01-16T17:09:59;19.83;;;9.07;;
33010;SDS011;19370;48.562;9.196;2024-01-16T17:12:24;18.83;;;8.13;;
33010;SDS011;19370;48.562;9.196;2024-01-16T17:14:57;18.45;;;9.60;;
33010;SDS011;19370;48.562;9.196;2024-01-16T17:17:27;19.90;;;8.20;;
33010;SDS011;19370;48.562;9.196;2024-01-16T17:20:07;20.63;;;9.25;;
33010;SDS011;19370;48.562;9.196;2024-01-16T17:22:40;16.80;;;8.48;;
33010;SDS011;19370;48.562;9.196;2024-01-16T17:25:06;18.23;;;8.18;;
33010;SDS011;19370;48.562;9.196;2024-01-16T17:27:33;18.92;;;8.63;;
33010;SDS011;19370;48.562;9.196;2024-01-16T17:30:00;19.33;;;8.90;;
33010;SDS011;19370;48.562;9.196;2024-01-16T17:32:26;20.90;;;8.93;;
33010;SDS011;19370;48.562;9.196;2024-01-16T17:34:52;17.15;;;8.50;;
33010;SDS011;19370;48.562;9.196;2024-01-16T17:37:19;20.20;;;8.82;;
33010;SDS011;19370;48.562;9.196;2024-01-16T17:39:46;20.15;;;9.93;;
33010;SDS011;19370;48.562;9.196;2024-01-16T17:42:12;20.53;;;10.53;;
33010;SDS011;19370;48.562;9.196;2024-01-16T17:44:48;21.20;;;9.90;;
33010;SDS011;19370;48.562;9.196;2024-01-16T17:47:15;22.85;;;11.13;;
33010;SDS011;19370;48.562;9.196;2024-01-16T17:49:49;23.95;;;11.40;;
33010;SDS011;19370;48.562;9.196;2024-01-16T17:52:17;22.88;;;11.20;;
33010;SDS011;19370;48.562;9.196;2024-01-16T17:54:49;21.83;;;11.33;;
33010;SDS011;19370;48.562;9.196;2024-01-16T17:57:21;23.08;;;10.88;;
33010;SDS011;19370;48.562;9.196;2024-01-16T17:59:51;21.63;;;10.90;;
33010;SDS011;19370;48.562;9.196;2024-01-16T18:02:17;22.15;;;10.07;;
33010;SDS011;19370;48.562;9.196;2024-01-16T18:04:52;22.87;;;10.20;;
33010;SDS011;19370;48.562;9.196;2024-01-16T18:07:17;20.60;;;10.05;;
33010;SDS011;19370;48.562;9.196;2024-01-16T18:09:48;19.97;;;9.27;;
33010;SDS011;19370;48.562;9.196;2024-01-16T18:12:14;20.02;;;8.70;;
33010;SDS011;19370;48.562;9.196;2024-01-16T18:14:39;18.80;;;8.80;;
33010;SDS011;19370;48.562;9.196;2024-01-16T18:17:07;18.15;;;9.23;;
33010;SDS011;19370;48.562;9.196;2024-01-16T18:19:34;17.07;;;7.73;;
33010;SDS011;19370;48.562;9.196;2024-01-16T18:22:01;17.15;;;8.27;;
33010;SDS011;19370;48.562;9.196;2024-01-16T18:24:28;17.98;;;8.25;;
33010;SDS011;19370;48.562;9.196;2024-01-16T18:26:55;15.70;;;7.38;;
33010;SDS011;19370;48.562;9.196;2024-01-16T18:29:20;19.40;;;9.60;;
33010;SDS011;19370;48.562;9.196;2024-01-16T18:31:46;20.13;;;10.27;;
33010;SDS011;19370;48.562;9.196;2024-01-16T18:34:17;20.05;;;9.30;;
33010;SDS011;19370;48.562;9.196;2024-01-16T18:36:46;19.77;;;10.03;;
33010;SDS011;19370;48.562;9.196;2024-01-16T18:39:16;20.23;;;9.02;;
33010;SDS011;19370;48.562;9.196;2024-01-16T18:41:46;22.67;;;10.02;;
33010;SDS011;19370;48.562;9.196;2024-01-16T18:44:16;18.75;;;8.55;;
33010;SDS011;19370;48.562;9.196;2024-01-16T18:46:45;19.38;;;8.80;;
33010;SDS011;19370;48.562;9.196;2024-01-16T18:49:12;21.27;;;9.13;;
33010;SDS011;19370;48.562;9.196;2024-01-16T18:51:38;19.27;;;9.80;;
33010;SDS011;19370;48.562;9.196;2024-01-16T18:54:06;19.88;;;9.75;;
33010;SDS011;19370;48.562;9.196;2024-01-16T18:56:32;20.27;;;9.32;;
33010;SDS011;19370;48.562;9.196;2024-01-16T18:59:01;20.58;;;9.63;;
33010;SDS011;19370;48.562;9.196;2024-01-16T19:01:27;21.67;;;10.93;;
33010;SDS011;19370;48.562;9.196;2024-01-16T19:03:56;24.65;;;11.95;;
33010;SDS011;19370;48.562;9.196;2024-01-16T19:08:51;25.15;;;11.82;;
33010;SDS011;19370;48.562;9.196;2024-01-16T19:11:19;22.37;;;10.73;;
33010;SDS011;19370;48.562;9.196;2024-01-16T19:13:48;22.85;;;10.75;;
33010;SDS011;19370;48.562;9.196;2024-01-16T19:16:14;20.98;;;10.32;;
33010;SDS011;19370;48.562;9.196;2024-01-16T19:21:31;21.45;;;9.93;;
33010;SDS011;19370;48.562;9.196;2024-01-16T19:24:00;18.93;;;8.80;;
33010;SDS011;19370;48.562;9.196;2024-01-16T19:26:29;20.70;;;9.38;;
33010;SDS011;19370;48.562;9.196;2024-01-16T19:29:00;21.63;;;9.48;;
33010;SDS011;19370;48.562;9.196;2024-01-16T19:31:29;20.08;;;8.77;;
33010;SDS011;19370;48.562;9.196;2024-01-16T19:34:16;21.30;;;9.40;;
33010;SDS011;19370;48.562;9.196;2024-01-16T19:36:48;23.57;;;8.80;;
33010;SDS011;19370;48.562;9.196;2024-01-16T19:39:15;22.25;;;9.50;;
33010;SDS011;19370;48.562;9.196;2024-01-16T19:41:57;19.45;;;9.73;;
33010;SDS011;19370;48.562;9.196;2024-01-16T19:44:31;21.77;;;9.30;;
33010;SDS011;19370;48.562;9.196;2024-01-16T19:46:57;19.38;;;9.23;;
33010;SDS011;19370;48.562;9.196;2024-01-16T19:49:22;21.52;;;9.45;;
33010;SDS011;19370;48.562;9.196;2024-01-16T19:57:55;17.23;;;7.47;;
33010;SDS011;19370;48.562;9.196;2024-01-16T20:00:21;18.10;;;7.50;;
33010;SDS011;19370;48.562;9.196;2024-01-16T20:02:57;20.75;;;8.02;;
33010;SDS011;19370;48.562;9.196;2024-01-16T20:05:35;18.95;;;9.10;;
33010;SDS011;19370;48.562;9.196;2024-01-16T20:08:30;16.95;;;7.95;;
33010;SDS011;19370;48.562;9.196;2024-01-16T20:10:57;16.50;;;7.57;;
33010;SDS011;19370;48.562;9.196;2024-01-16T20:16:48;16.80;;;8.00;;
33010;SDS011;19370;48.562;9.196;2024-01-16T20:19:19;16.77;;;7.70;;
33010;SDS011;19370;48.562;9.196;2024-01-16T20:21:47;21.17;;;8.55;;
33010;SDS011;19370;48.562;9.196;2024-01-16T20:24:53;20.55;;;10.10;;
33010;SDS011;19370;48.562;9.196;2024-01-16T20:31:09;20.17;;;9.70;;
33010;SDS011;19370;48.562;9.196;2024-01-16T20:33:43;23.15;;;10.70;;
33010;SDS011;19370;48.562;9.196;2024-01-16T20:36:20;26.02;;;11.88;;
33010;SDS011;19370;48.562;9.196;2024-01-16T20:38:53;24.98;;;11.20;;
33010;SDS011;19370;48.562;9.196;2024-01-16T20:41:18;28.03;;;12.13;;
33010;SDS011;19370;48.562;9.196;2024-01-16T20:47:00;25.33;;;10.55;;
33010;SDS011;19370;48.562;9.196;2024-01-16T20:52:37;20.83;;;9.47;;
33010;SDS011;19370;48.562;9.196;2024-01-16T20:57:52;24.88;;;10.98;;
33010;SDS011;19370;48.562;9.196;2024-01-16T21:00:25;21.95;;;10.98;;
33010;SDS011;19370;48.562;9.196;2024-01-16T21:03:04;22.05;;;9.85;;
33010;SDS011;19370;48.562;9.196;2024-01-16T21:08:31;17.85;;;8.50;;
33010;SDS011;19370;48.562;9.196;2024-01-16T21:11:01;19.77;;;9.68;;
33010;SDS011;19370;48.562;9.196;2024-01-16T21:16:51;21.02;;;10.05;;
33010;SDS011;19370;48.562;9.196;2024-01-16T21:20:05;20.23;;;9.80;;
33010;SDS011;19370;48.562;9.196;2024-01-16T21:22:32;20.30;;;9.65;;
33010;SDS011;19370;48.562;9.196;2024-01-16T21:25:21;23.95;;;10.35;;
